sensor_id;sensor_type;location;lat;lon;timestamp;P1;durP1;ratioP1;P2;durP2;ratioP2
6053;SDS011;3055;50.886;14.814;2023-08-17T00:01:17;9.07;;;7.40;;
6053;SDS011;3055;50.886;14.814;2023-08-17T00:03:44;8.90;;;7.27;;
6053;SDS011;3055;50.886;14.814;2023-08-17T00:06:11;7.50;;;6.70;;
6053;SDS011;3055;50.886;14.814;2023-08-17T00:08:38;7.63;;;7.03;;
6053;SDS011;3055;50.886;14.814;2023-08-17T00:11:05;8.03;;;7.33;;
6053;SDS011;3055;50.886;14.814;2023-08-17T00:13:32;7.40;;;6.67;;
6053;SDS011;3055;50.886;14.814;2023-08-17T00:16:00;8.10;;;7.30;;
6053;SDS011;3055;50.886;14.814;2023-08-17T00:18:28;7.73;;;6.93;;
6053;SDS011;3055;50.886;14.814;2023-08-17T00:20:55;7.83;;;7.00;;
6053;SDS011;3055;50.886;14.814;2023-08-17T00:23:22;9.10;;;7.13;;
6053;SDS011;3055;50.886;14.814;2023-08-17T00:25:49;8.07;;;7.23;;
6053;SDS011;3055;50.886;14.814;2023-08-17T00:28:16;8.73;;;7.80;;
6053;SDS011;3055;50.886;14.814;2023-08-17T00:30:43;9.97;;;7.77;;
6053;SDS011;3055;50.886;14.814;2023-08-17T00:33:12;8.83;;;8.03;;
6053;SDS011;3055;50.886;14.814;2023-08-17T00:35:39;8.70;;;8.00;;
6053;SDS011;3055;50.886;14.814;2023-08-17T00:38:06;10.83;;;9.13;;
6053;SDS011;3055;50.886;14.814;2023-08-17T00:40:34;7.90;;;7.20;;
6053;SDS011;3055;50.886;14.814;2023-08-17T00:43:01;8.93;;;7.97;;
6053;SDS011;3055;50.886;14.814;2023-08-17T00:45:28;9.27;;;8.13;;
6053;SDS011;3055;50.886;14.814;2023-08-17T00:47:56;11.87;;;8.13;;
6053;SDS011;3055;50.886;14.814;2023-08-17T00:50:25;8.67;;;7.87;;
6053;SDS011;3055;50.886;14.814;2023-08-17T00:52:53;8.83;;;8.03;;
6053;SDS011;3055;50.886;14.814;2023-08-17T00:55:22;10.90;;;6.93;;
6053;SDS011;3055;50.886;14.814;2023-08-17T00:57:50;8.60;;;7.50;;
6053;SDS011;3055;50.886;14.814;2023-08-17T01:00:18;8.93;;;7.67;;
6053;SDS011;3055;50.886;14.814;2023-08-17T01:02:46;7.40;;;6.70;;
6053;SDS011;3055;50.886;14.814;2023-08-17T01:05:13;12.37;;;7.50;;
6053;SDS011;3055;50.886;14.814;2023-08-17T01:07:42;8.50;;;7.80;;
6053;SDS011;3055;50.886;14.814;2023-08-17T01:10:09;12.33;;;7.90;;
6053;SDS011;3055;50.886;14.814;2023-08-17T01:12:38;8.23;;;7.43;;
6053;SDS011;3055;50.886;14.814;2023-08-17T01:15:11;8.80;;;7.57;;
6053;SDS011;3055;50.886;14.814;2023-08-17T01:17:42;8.13;;;7.53;;
6053;SDS011;3055;50.886;14.814;2023-08-17T01:20:12;9.77;;;7.50;;
6053;SDS011;3055;50.886;14.814;2023-08-17T01:22:45;9.90;;;8.90;;
6053;SDS011;3055;50.886;14.814;2023-08-17T01:25:16;10.27;;;9.23;;
6053;SDS011;3055;50.886;14.814;2023-08-17T01:27:43;9.03;;;8.23;;
6053;SDS011;3055;50.886;14.814;2023-08-17T01:30:12;8.77;;;7.83;;
6053;SDS011;3055;50.886;14.814;2023-08-17T01:32:43;8.60;;;7.83;;
6053;SDS011;3055;50.886;14.814;2023-08-17T01:35:16;10.13;;;7.97;;
6053;SDS011;3055;50.886;14.814;2023-08-17T01:37:48;8.73;;;7.83;;
6053;SDS011;3055;50.886;14.814;2023-08-17T01:40:20;8.03;;;7.33;;
6053;SDS011;3055;50.886;14.814;2023-08-17T01:42:49;11.77;;;8.40;;
6053;SDS011;3055;50.886;14.814;2023-08-17T01:45:17;11.47;;;9.50;;
6053;SDS011;3055;50.886;14.814;2023-08-17T01:47:44;12.90;;;8.57;;
6053;SDS011;3055;50.886;14.814;2023-08-17T01:50:11;10.03;;;9.03;;
6053;SDS011;3055;50.886;14.814;2023-08-17T01:52:38;9.37;;;8.47;;
6053;SDS011;3055;50.886;14.814;2023-08-17T01:55:05;9.00;;;8.10;;
6053;SDS011;3055;50.886;14.814;2023-08-17T01:57:34;8.33;;;7.63;;
6053;SDS011;3055;50.886;14.814;2023-08-17T02:00:02;7.93;;;7.27;;
6053;SDS011;3055;50.886;14.814;2023-08-17T02:02:30;9.40;;;8.40;;
6053;SDS011;3055;50.886;14.814;2023-08-17T02:04:57;8.23;;;7.43;;
6053;SDS011;3055;50.886;14.814;2023-08-17T02:07:24;9.27;;;8.33;;
6053;SDS011;3055;50.886;14.814;2023-08-17T02:09:51;10.37;;;9.40;;
6053;SDS011;3055;50.886;14.814;2023-08-17T02:12:18;9.70;;;8.80;;
6053;SDS011;3055;50.886;14.814;2023-08-17T02:14:47;10.00;;;9.10;;
6053;SDS011;3055;50.886;14.814;2023-08-17T02:17:14;13.03;;;9.63;;
6053;SDS011;3055;50.886;14.814;2023-08-17T02:19:41;10.47;;;8.30;;
6053;SDS011;3055;50.886;14.814;2023-08-17T02:22:09;9.37;;;8.47;;
6053;SDS011;3055;50.886;14.814;2023-08-17T02:24:36;8.93;;;8.07;;
6053;SDS011;3055;50.886;14.814;2023-08-17T02:27:03;8.67;;;7.87;;
6053;SDS011;3055;50.886;14.814;2023-08-17T02:29:30;8.57;;;7.77;;
6053;SDS011;3055;50.886;14.814;2023-08-17T02:31:59;11.57;;;8.20;;
6053;SDS011;3055;50.886;14.814;2023-08-17T02:34:26;8.03;;;7.23;;
6053;SDS011;3055;50.886;14.814;2023-08-17T02:36:53;8.73;;;7.93;;
6053;SDS011;3055;50.886;14.814;2023-08-17T02:39:20;9.80;;;7.37;;
6053;SDS011;3055;50.886;14.814;2023-08-17T02:41:47;7.43;;;6.73;;
6053;SDS011;3055;50.886;14.814;2023-08-17T02:44:15;7.17;;;6.57;;
6053;SDS011;3055;50.886;14.814;2023-08-17T02:46:42;7.63;;;6.97;;
6053;SDS011;3055;50.886;14.814;2023-08-17T02:49:10;7.77;;;6.70;;
6053;SDS011;3055;50.886;14.814;2023-08-17T02:51:37;7.17;;;6.57;;
6053;SDS011;3055;50.886;14.814;2023-08-17T02:54:04;7.23;;;6.70;;
6053;SDS011;3055;50.886;14.814;2023-08-17T02:56:32;6.27;;;5.50;;
6053;SDS011;3055;50.886;14.814;2023-08-17T02:58:59;6.80;;;6.07;;
6053;SDS011;3055;50.886;14.814;2023-08-17T03:01:26;7.47;;;6.67;;
6053;SDS011;3055;50.886;14.814;2023-08-17T03:03:54;7.47;;;6.33;;
6053;SDS011;3055;50.886;14.814;2023-08-17T03:06:22;6.80;;;5.67;;
6053;SDS011;3055;50.886;14.814;2023-08-17T03:08:49;6.23;;;5.70;;
6053;SDS011;3055;50.886;14.814;2023-08-17T03:11:17;6.90;;;6.30;;
6053;SDS011;3055;50.886;14.814;2023-08-17T03:13:45;6.53;;;5.90;;
6053;SDS011;3055;50.886;14.814;2023-08-17T03:16:13;6.97;;;6.37;;
6053;SDS011;3055;50.886;14.814;2023-08-17T03:18:41;7.17;;;6.33;;
6053;SDS011;3055;50.886;14.814;2023-08-17T03:21:08;7.60;;;6.50;;
6053;SDS011;3055;50.886;14.814;2023-08-17T03:23:36;7.83;;;6.20;;
6053;SDS011;3055;50.886;14.814;2023-08-17T03:26:03;6.57;;;5.97;;
6053;SDS011;3055;50.886;14.814;2023-08-17T03:28:30;6.57;;;5.97;;
6053;SDS011;3055;50.886;14.814;2023-08-17T03:30:57;6.77;;;6.17;;
6053;SDS011;3055;50.886;14.814;2023-08-17T03:33:24;8.40;;;6.20;;
6053;SDS011;3055;50.886;14.814;2023-08-17T03:35:51;7.60;;;6.80;;
6053;SDS011;3055;50.886;14.814;2023-08-17T03:38:18;8.20;;;6.97;;
6053;SDS011;3055;50.886;14.814;2023-08-17T03:40:47;7.87;;;7.17;;
6053;SDS011;3055;50.886;14.814;2023-08-17T03:43:14;7.03;;;6.33;;
6053;SDS011;3055;50.886;14.814;2023-08-17T03:45:41;8.40;;;6.50;;
6053;SDS011;3055;50.886;14.814;2023-08-17T03:48:09;7.37;;;6.60;;
6053;SDS011;3055;50.886;14.814;2023-08-17T03:50:37;7.30;;;6.70;;
6053;SDS011;3055;50.886;14.814;2023-08-17T03:53:04;7.47;;;6.87;;
6053;SDS011;3055;50.886;14.814;2023-08-17T03:55:31;7.13;;;6.43;;
6053;SDS011;3055;50.886;14.814;2023-08-17T03:57:59;8.23;;;7.10;;
6053;SDS011;3055;50.886;14.814;2023-08-17T04:00:26;8.43;;;7.53;;
6053;SDS011;3055;50.886;14.814;2023-08-17T04:02:53;8.23;;;7.33;;
6053;SDS011;3055;50.886;14.814;2023-08-17T04:05:20;8.27;;;7.47;;
6053;SDS011;3055;50.886;14.814;2023-08-17T04:07:47;9.00;;;7.50;;
6053;SDS011;3055;50.886;14.814;2023-08-17T04:10:14;9.20;;;8.23;;
6053;SDS011;3055;50.886;14.814;2023-08-17T04:12:41;8.40;;;7.63;;
6053;SDS011;3055;50.886;14.814;2023-08-17T04:15:10;8.23;;;7.37;;
6053;SDS011;3055;50.886;14.814;2023-08-17T04:17:37;8.77;;;7.83;;
6053;SDS011;3055;50.886;14.814;2023-08-17T04:20:04;8.53;;;7.73;;
6053;SDS011;3055;50.886;14.814;2023-08-17T04:22:32;8.63;;;7.53;;
6053;SDS011;3055;50.886;14.814;2023-08-17T04:24:59;7.37;;;6.60;;
6053;SDS011;3055;50.886;14.814;2023-08-17T04:27:26;7.70;;;6.93;;
6053;SDS011;3055;50.886;14.814;2023-08-17T04:29:53;9.10;;;6.67;;
6053;SDS011;3055;50.886;14.814;2023-08-17T04:32:22;8.07;;;6.63;;
6053;SDS011;3055;50.886;14.814;2023-08-17T04:34:49;7.33;;;6.63;;
6053;SDS011;3055;50.886;14.814;2023-08-17T04:37:16;9.57;;;7.33;;
6053;SDS011;3055;50.886;14.814;2023-08-17T04:39:43;7.60;;;6.73;;
6053;SDS011;3055;50.886;14.814;2023-08-17T04:42:10;8.80;;;6.53;;
6053;SDS011;3055;50.886;14.814;2023-08-17T04:44:37;9.13;;;7.17;;
6053;SDS011;3055;50.886;14.814;2023-08-17T04:47:04;9.97;;;6.70;;
6053;SDS011;3055;50.886;14.814;2023-08-17T04:49:33;7.73;;;6.97;;
6053;SDS011;3055;50.886;14.814;2023-08-17T04:51:59;7.07;;;6.37;;
6053;SDS011;3055;50.886;14.814;2023-08-17T04:54:27;9.23;;;7.97;;
6053;SDS011;3055;50.886;14.814;2023-08-17T04:56:54;10.20;;;7.50;;
6053;SDS011;3055;50.886;14.814;2023-08-17T04:59:21;8.00;;;6.37;;
6053;SDS011;3055;50.886;14.814;2023-08-17T05:01:48;8.77;;;7.30;;
6053;SDS011;3055;50.886;14.814;2023-08-17T05:04:16;8.20;;;7.40;;
6053;SDS011;3055;50.886;14.814;2023-08-17T05:06:45;8.20;;;7.40;;
6053;SDS011;3055;50.886;14.814;2023-08-17T05:09:12;7.07;;;6.33;;
6053;SDS011;3055;50.886;14.814;2023-08-17T05:11:39;8.23;;;6.43;;
6053;SDS011;3055;50.886;14.814;2023-08-17T05:14:06;8.97;;;5.90;;
6053;SDS011;3055;50.886;14.814;2023-08-17T05:16:33;9.53;;;6.33;;
6053;SDS011;3055;50.886;14.814;2023-08-17T05:19:00;6.77;;;6.17;;
6053;SDS011;3055;50.886;14.814;2023-08-17T05:21:27;6.70;;;5.67;;
6053;SDS011;3055;50.886;14.814;2023-08-17T05:23:56;7.87;;;5.97;;
6053;SDS011;3055;50.886;14.814;2023-08-17T05:26:23;7.93;;;6.07;;
6053;SDS011;3055;50.886;14.814;2023-08-17T05:28:50;6.73;;;5.70;;
6053;SDS011;3055;50.886;14.814;2023-08-17T05:31:17;6.13;;;5.40;;
6053;SDS011;3055;50.886;14.814;2023-08-17T05:33:44;8.77;;;5.20;;
6053;SDS011;3055;50.886;14.814;2023-08-17T05:36:12;9.67;;;6.60;;
6053;SDS011;3055;50.886;14.814;2023-08-17T05:38:39;12.40;;;7.10;;
6053;SDS011;3055;50.886;14.814;2023-08-17T05:41:08;10.23;;;7.53;;
6053;SDS011;3055;50.886;14.814;2023-08-17T05:43:35;7.93;;;7.07;;
6053;SDS011;3055;50.886;14.814;2023-08-17T05:46:02;7.77;;;5.97;;
6053;SDS011;3055;50.886;14.814;2023-08-17T05:48:29;8.57;;;6.63;;
6053;SDS011;3055;50.886;14.814;2023-08-17T05:50:56;7.07;;;6.20;;
6053;SDS011;3055;50.886;14.814;2023-08-17T05:53:23;10.23;;;6.57;;
6053;SDS011;3055;50.886;14.814;2023-08-17T05:55:50;7.03;;;6.33;;
6053;SDS011;3055;50.886;14.814;2023-08-17T05:58:19;7.20;;;6.47;;
6053;SDS011;3055;50.886;14.814;2023-08-17T06:00:46;6.97;;;6.27;;
6053;SDS011;3055;50.886;14.814;2023-08-17T06:03:13;8.67;;;6.40;;
6053;SDS011;3055;50.886;14.814;2023-08-17T06:05:40;7.23;;;6.37;;
6053;SDS011;3055;50.886;14.814;2023-08-17T06:08:07;8.60;;;7.20;;
6053;SDS011;3055;50.886;14.814;2023-08-17T06:10:34;7.77;;;6.97;;
6053;SDS011;3055;50.886;14.814;2023-08-17T06:13:02;8.87;;;6.90;;
6053;SDS011;3055;50.886;14.814;2023-08-17T06:15:31;8.20;;;6.70;;
6053;SDS011;3055;50.886;14.814;2023-08-17T06:17:58;8.03;;;7.17;;
6053;SDS011;3055;50.886;14.814;2023-08-17T06:20:25;7.63;;;5.67;;
6053;SDS011;3055;50.886;14.814;2023-08-17T06:22:52;7.10;;;6.50;;
6053;SDS011;3055;50.886;14.814;2023-08-17T06:25:19;8.93;;;7.20;;
6053;SDS011;3055;50.886;14.814;2023-08-17T06:27:48;7.10;;;6.37;;
6053;SDS011;3055;50.886;14.814;2023-08-17T06:30:15;8.27;;;6.60;;
6053;SDS011;3055;50.886;14.814;2023-08-17T06:32:44;8.10;;;7.30;;
6053;SDS011;3055;50.886;14.814;2023-08-17T06:35:11;8.70;;;7.07;;
6053;SDS011;3055;50.886;14.814;2023-08-17T06:37:38;9.57;;;6.53;;
6053;SDS011;3055;50.886;14.814;2023-08-17T06:40:06;9.40;;;6.27;;
6053;SDS011;3055;50.886;14.814;2023-08-17T06:42:35;7.47;;;6.17;;
6053;SDS011;3055;50.886;14.814;2023-08-17T06:45:02;7.43;;;6.60;;
6053;SDS011;3055;50.886;14.814;2023-08-17T06:47:30;6.90;;;6.20;;
6053;SDS011;3055;50.886;14.814;2023-08-17T06:49:58;7.03;;;6.33;;
6053;SDS011;3055;50.886;14.814;2023-08-17T06:52:25;7.67;;;6.17;;
6053;SDS011;3055;50.886;14.814;2023-08-17T06:54:52;7.67;;;5.87;;
6053;SDS011;3055;50.886;14.814;2023-08-17T06:57:20;8.77;;;7.20;;
6053;SDS011;3055;50.886;14.814;2023-08-17T06:59:47;7.03;;;6.43;;
6053;SDS011;3055;50.886;14.814;2023-08-17T07:02:14;7.33;;;6.60;;
6053;SDS011;3055;50.886;14.814;2023-08-17T07:04:42;9.10;;;7.13;;
6053;SDS011;3055;50.886;14.814;2023-08-17T07:07:10;8.70;;;6.63;;
6053;SDS011;3055;50.886;14.814;2023-08-17T07:09:39;8.07;;;6.73;;
6053;SDS011;3055;50.886;14.814;2023-08-17T07:12:06;10.87;;;7.23;;
6053;SDS011;3055;50.886;14.814;2023-08-17T07:14:33;8.93;;;7.30;;
6053;SDS011;3055;50.886;14.814;2023-08-17T07:17:01;6.87;;;5.80;;
6053;SDS011;3055;50.886;14.814;2023-08-17T07:19:28;8.77;;;5.97;;
6053;SDS011;3055;50.886;14.814;2023-08-17T07:21:55;9.47;;;6.33;;
6053;SDS011;3055;50.886;14.814;2023-08-17T07:24:23;9.33;;;7.30;;
6053;SDS011;3055;50.886;14.814;2023-08-17T07:26:50;8.73;;;6.67;;
6053;SDS011;3055;50.886;14.814;2023-08-17T07:29:18;8.47;;;5.80;;
6053;SDS011;3055;50.886;14.814;2023-08-17T07:31:45;7.43;;;5.77;;
6053;SDS011;3055;50.886;14.814;2023-08-17T07:34:12;8.07;;;5.83;;
6053;SDS011;3055;50.886;14.814;2023-08-17T07:36:40;6.63;;;5.37;;
6053;SDS011;3055;50.886;14.814;2023-08-17T07:39:07;6.77;;;5.57;;
6053;SDS011;3055;50.886;14.814;2023-08-17T07:41:36;9.60;;;6.23;;
6053;SDS011;3055;50.886;14.814;2023-08-17T07:44:03;8.27;;;5.80;;
6053;SDS011;3055;50.886;14.814;2023-08-17T07:46:31;9.97;;;6.20;;
6053;SDS011;3055;50.886;14.814;2023-08-17T07:48:58;10.80;;;5.57;;
6053;SDS011;3055;50.886;14.814;2023-08-17T07:51:25;12.67;;;6.17;;
6053;SDS011;3055;50.886;14.814;2023-08-17T07:53:55;7.17;;;5.43;;
6053;SDS011;3055;50.886;14.814;2023-08-17T07:56:22;7.60;;;6.40;;
6053;SDS011;3055;50.886;14.814;2023-08-17T07:58:50;8.90;;;6.10;;
6053;SDS011;3055;50.886;14.814;2023-08-17T08:01:17;9.40;;;5.87;;
6053;SDS011;3055;50.886;14.814;2023-08-17T08:03:44;7.73;;;5.67;;
6053;SDS011;3055;50.886;14.814;2023-08-17T08:06:11;6.47;;;5.87;;
6053;SDS011;3055;50.886;14.814;2023-08-17T08:08:39;10.23;;;5.73;;
6053;SDS011;3055;50.886;14.814;2023-08-17T08:11:06;9.80;;;5.90;;
6053;SDS011;3055;50.886;14.814;2023-08-17T08:13:33;9.87;;;5.60;;
6053;SDS011;3055;50.886;14.814;2023-08-17T08:16:02;5.73;;;5.07;;
6053;SDS011;3055;50.886;14.814;2023-08-17T08:18:29;7.63;;;5.37;;
6053;SDS011;3055;50.886;14.814;2023-08-17T08:20:56;7.30;;;5.57;;
6053;SDS011;3055;50.886;14.814;2023-08-17T08:23:23;5.20;;;4.67;;
6053;SDS011;3055;50.886;14.814;2023-08-17T08:25:51;6.80;;;4.90;;
6053;SDS011;3055;50.886;14.814;2023-08-17T08:28:18;7.70;;;4.93;;
6053;SDS011;3055;50.886;14.814;2023-08-17T08:30:45;8.80;;;5.20;;
6053;SDS011;3055;50.886;14.814;2023-08-17T08:33:14;8.60;;;5.80;;
6053;SDS011;3055;50.886;14.814;2023-08-17T08:35:41;8.23;;;5.37;;
6053;SDS011;3055;50.886;14.814;2023-08-17T08:38:08;8.47;;;5.63;;
6053;SDS011;3055;50.886;14.814;2023-08-17T08:40:35;6.87;;;4.87;;
6053;SDS011;3055;50.886;14.814;2023-08-17T08:43:04;6.90;;;5.30;;
6053;SDS011;3055;50.886;14.814;2023-08-17T08:45:31;7.63;;;5.40;;
6053;SDS011;3055;50.886;14.814;2023-08-17T08:51:27;7.80;;;5.33;;
6053;SDS011;3055;50.886;14.814;2023-08-17T08:53:58;9.13;;;5.43;;
6053;SDS011;3055;50.886;14.814;2023-08-17T08:56:28;8.37;;;5.40;;
6053;SDS011;3055;50.886;14.814;2023-08-17T08:58:59;10.73;;;5.70;;
6053;SDS011;3055;50.886;14.814;2023-08-17T09:01:28;9.30;;;5.87;;
6053;SDS011;3055;50.886;14.814;2023-08-17T09:03:58;10.10;;;6.07;;
6053;SDS011;3055;50.886;14.814;2023-08-17T09:06:26;8.77;;;5.80;;
6053;SDS011;3055;50.886;14.814;2023-08-17T09:08:55;10.53;;;6.27;;
6053;SDS011;3055;50.886;14.814;2023-08-17T09:11:23;5.80;;;5.07;;
6053;SDS011;3055;50.886;14.814;2023-08-17T09:13:52;9.27;;;5.43;;
6053;SDS011;3055;50.886;14.814;2023-08-17T09:16:19;10.07;;;5.73;;
6053;SDS011;3055;50.886;14.814;2023-08-17T09:18:46;11.37;;;5.40;;
6053;SDS011;3055;50.886;14.814;2023-08-17T09:21:19;5.13;;;4.63;;
6053;SDS011;3055;50.886;14.814;2023-08-17T09:23:51;6.33;;;5.30;;
6053;SDS011;3055;50.886;14.814;2023-08-17T09:26:19;9.37;;;6.03;;
6053;SDS011;3055;50.886;14.814;2023-08-17T09:28:48;7.83;;;5.70;;
6053;SDS011;3055;50.886;14.814;2023-08-17T09:31:15;8.10;;;5.87;;
6053;SDS011;3055;50.886;14.814;2023-08-17T09:33:48;9.73;;;5.80;;
6053;SDS011;3055;50.886;14.814;2023-08-17T09:36:19;6.40;;;5.80;;
6053;SDS011;3055;50.886;14.814;2023-08-17T09:38:47;11.30;;;6.40;;
6053;SDS011;3055;50.886;14.814;2023-08-17T09:41:17;8.20;;;6.33;;
6053;SDS011;3055;50.886;14.814;2023-08-17T09:43:44;7.47;;;6.40;;
6053;SDS011;3055;50.886;14.814;2023-08-17T09:46:12;7.73;;;5.90;;
6053;SDS011;3055;50.886;14.814;2023-08-17T09:48:39;7.30;;;5.83;;
6053;SDS011;3055;50.886;14.814;2023-08-17T09:51:09;7.63;;;5.57;;
6053;SDS011;3055;50.886;14.814;2023-08-17T09:53:36;7.80;;;6.13;;
6053;SDS011;3055;50.886;14.814;2023-08-17T09:56:04;6.30;;;5.80;;
6053;SDS011;3055;50.886;14.814;2023-08-17T09:58:37;7.50;;;5.70;;
6053;SDS011;3055;50.886;14.814;2023-08-17T10:01:04;7.23;;;6.30;;
6053;SDS011;3055;50.886;14.814;2023-08-17T10:03:32;7.77;;;5.63;;
6053;SDS011;3055;50.886;14.814;2023-08-17T10:06:03;6.93;;;5.90;;
6053;SDS011;3055;50.886;14.814;2023-08-17T10:08:32;6.17;;;5.67;;
6053;SDS011;3055;50.886;14.814;2023-08-17T10:11:02;6.37;;;5.77;;
6053;SDS011;3055;50.886;14.814;2023-08-17T10:13:35;7.37;;;6.20;;
6053;SDS011;3055;50.886;14.814;2023-08-17T10:16:09;7.30;;;6.60;;
6053;SDS011;3055;50.886;14.814;2023-08-17T10:18:50;6.60;;;5.97;;
6053;SDS011;3055;50.886;14.814;2023-08-17T10:21:23;8.33;;;6.80;;
6053;SDS011;3055;50.886;14.814;2023-08-17T10:23:54;7.50;;;6.70;;
6053;SDS011;3055;50.886;14.814;2023-08-17T10:26:22;7.10;;;6.40;;
6053;SDS011;3055;50.886;14.814;2023-08-17T10:28:52;7.13;;;6.53;;
6053;SDS011;3055;50.886;14.814;2023-08-17T10:31:24;6.83;;;6.10;;
6053;SDS011;3055;50.886;14.814;2023-08-17T10:33:53;11.83;;;6.90;;
6053;SDS011;3055;50.886;14.814;2023-08-17T10:36:22;6.80;;;6.03;;
6053;SDS011;3055;50.886;14.814;2023-08-17T10:41:45;6.97;;;6.17;;
6053;SDS011;3055;50.886;14.814;2023-08-17T10:44:17;6.60;;;6.10;;
6053;SDS011;3055;50.886;14.814;2023-08-17T10:46:44;7.33;;;6.43;;
6053;SDS011;3055;50.886;14.814;2023-08-17T10:49:25;7.10;;;6.50;;
6053;SDS011;3055;50.886;14.814;2023-08-17T10:52:02;7.63;;;6.30;;
6053;SDS011;3055;50.886;14.814;2023-08-17T10:54:36;7.63;;;6.80;;
6053;SDS011;3055;50.886;14.814;2023-08-17T11:02:42;7.07;;;6.33;;
6053;SDS011;3055;50.886;14.814;2023-08-17T11:05:10;6.93;;;6.33;;
6053;SDS011;3055;50.886;14.814;2023-08-17T11:07:39;10.03;;;7.63;;
6053;SDS011;3055;50.886;14.814;2023-08-17T11:10:11;7.77;;;6.83;;
6053;SDS011;3055;50.886;14.814;2023-08-17T11:12:40;8.77;;;6.67;;
6053;SDS011;3055;50.886;14.814;2023-08-17T11:15:08;8.13;;;7.13;;
6053;SDS011;3055;50.886;14.814;2023-08-17T11:17:37;8.20;;;7.10;;
6053;SDS011;3055;50.886;14.814;2023-08-17T11:20:04;8.37;;;7.13;;
6053;SDS011;3055;50.886;14.814;2023-08-17T11:22:34;7.20;;;6.50;;
6053;SDS011;3055;50.886;14.814;2023-08-17T11:25:01;7.60;;;6.80;;
6053;SDS011;3055;50.886;14.814;2023-08-17T11:27:30;9.13;;;7.33;;
6053;SDS011;3055;50.886;14.814;2023-08-17T11:29:57;7.47;;;6.77;;
6053;SDS011;3055;50.886;14.814;2023-08-17T11:32:24;7.47;;;6.77;;
6053;SDS011;3055;50.886;14.814;2023-08-17T11:34:52;7.60;;;6.83;;
6053;SDS011;3055;50.886;14.814;2023-08-17T11:37:20;7.93;;;6.97;;
6053;SDS011;3055;50.886;14.814;2023-08-17T11:39:48;6.45;;;5.85;;
6053;SDS011;3055;50.886;14.814;2023-08-17T11:42:15;8.00;;;7.10;;
6053;SDS011;3055;50.886;14.814;2023-08-17T11:44:43;7.13;;;6.22;;
6053;SDS011;3055;50.886;14.814;2023-08-17T11:47:10;6.35;;;5.85;;
6053;SDS011;3055;50.886;14.814;2023-08-17T11:49:38;6.40;;;5.72;;
6053;SDS011;3055;50.886;14.814;2023-08-17T11:52:08;6.60;;;5.90;;
6053;SDS011;3055;50.886;14.814;2023-08-17T11:54:39;6.20;;;5.70;;
6053;SDS011;3055;50.886;14.814;2023-08-17T11:57:07;6.80;;;6.18;;
6053;SDS011;3055;50.886;14.814;2023-08-17T11:59:34;6.30;;;5.80;;
6053;SDS011;3055;50.886;14.814;2023-08-17T12:02:01;7.20;;;6.60;;
6053;SDS011;3055;50.886;14.814;2023-08-17T12:04:28;7.32;;;6.00;;
6053;SDS011;3055;50.886;14.814;2023-08-17T12:06:55;6.47;;;5.88;;
6053;SDS011;3055;50.886;14.814;2023-08-17T12:09:23;6.72;;;5.93;;
6053;SDS011;3055;50.886;14.814;2023-08-17T12:11:54;8.00;;;6.03;;
6053;SDS011;3055;50.886;14.814;2023-08-17T12:14:26;6.63;;;6.03;;
6053;SDS011;3055;50.886;14.814;2023-08-17T12:16:54;7.00;;;6.40;;
6053;SDS011;3055;50.886;14.814;2023-08-17T12:19:21;8.00;;;6.03;;
6053;SDS011;3055;50.886;14.814;2023-08-17T12:21:50;6.45;;;6.00;;
6053;SDS011;3055;50.886;14.814;2023-08-17T12:24:17;6.88;;;5.75;;
6053;SDS011;3055;50.886;14.814;2023-08-17T12:26:47;6.93;;;5.93;;
6053;SDS011;3055;50.886;14.814;2023-08-17T12:29:14;8.60;;;6.65;;
6053;SDS011;3055;50.886;14.814;2023-08-17T12:31:41;7.60;;;5.32;;
6053;SDS011;3055;50.886;14.814;2023-08-17T12:34:08;7.53;;;5.80;;
6053;SDS011;3055;50.886;14.814;2023-08-17T12:36:35;6.05;;;5.55;;
6053;SDS011;3055;50.886;14.814;2023-08-17T12:39:03;6.35;;;5.80;;
6053;SDS011;3055;50.886;14.814;2023-08-17T12:41:31;6.00;;;5.50;;
6053;SDS011;3055;50.886;14.814;2023-08-17T12:43:59;6.65;;;6.07;;
6053;SDS011;3055;50.886;14.814;2023-08-17T12:46:26;6.53;;;5.93;;
6053;SDS011;3055;50.886;14.814;2023-08-17T12:48:57;7.40;;;5.47;;
6053;SDS011;3055;50.886;14.814;2023-08-17T12:51:24;7.22;;;6.43;;
6053;SDS011;3055;50.886;14.814;2023-08-17T12:53:51;7.65;;;6.95;;
6053;SDS011;3055;50.886;14.814;2023-08-17T12:56:18;6.50;;;6.00;;
6053;SDS011;3055;50.886;14.814;2023-08-17T12:58:46;6.15;;;5.57;;
6053;SDS011;3055;50.886;14.814;2023-08-17T13:01:14;6.68;;;6.07;;
6053;SDS011;3055;50.886;14.814;2023-08-17T13:03:41;6.25;;;5.65;;
6053;SDS011;3055;50.886;14.814;2023-08-17T13:06:08;6.20;;;5.78;;
6053;SDS011;3055;50.886;14.814;2023-08-17T13:08:35;6.40;;;5.82;;
6053;SDS011;3055;50.886;14.814;2023-08-17T13:11:02;6.95;;;6.25;;
6053;SDS011;3055;50.886;14.814;2023-08-17T13:13:29;6.60;;;5.95;;
6053;SDS011;3055;50.886;14.814;2023-08-17T13:15:56;6.75;;;6.25;;
6053;SDS011;3055;50.886;14.814;2023-08-17T13:18:25;7.07;;;5.60;;
6053;SDS011;3055;50.886;14.814;2023-08-17T13:20:53;6.65;;;6.07;;
6053;SDS011;3055;50.886;14.814;2023-08-17T13:23:20;9.48;;;6.55;;
6053;SDS011;3055;50.886;14.814;2023-08-17T13:25:47;6.40;;;5.72;;
6053;SDS011;3055;50.886;14.814;2023-08-17T13:28:14;6.97;;;6.28;;
6053;SDS011;3055;50.886;14.814;2023-08-17T13:30:41;6.50;;;5.88;;
6053;SDS011;3055;50.886;14.814;2023-08-17T13:33:08;7.30;;;6.65;;
6053;SDS011;3055;50.886;14.814;2023-08-17T13:35:38;7.15;;;5.60;;
6053;SDS011;3055;50.886;14.814;2023-08-17T13:38:05;5.78;;;5.28;;
6053;SDS011;3055;50.886;14.814;2023-08-17T13:40:32;7.30;;;6.15;;
6053;SDS011;3055;50.886;14.814;2023-08-17T13:43:01;6.78;;;6.20;;
6053;SDS011;3055;50.886;14.814;2023-08-17T13:45:28;6.68;;;5.72;;
6053;SDS011;3055;50.886;14.814;2023-08-17T13:47:55;6.53;;;5.93;;
6053;SDS011;3055;50.886;14.814;2023-08-17T13:50:22;8.50;;;5.80;;
6053;SDS011;3055;50.886;14.814;2023-08-17T13:52:51;6.20;;;5.60;;
6053;SDS011;3055;50.886;14.814;2023-08-17T13:55:18;5.97;;;5.40;;
6053;SDS011;3055;50.886;14.814;2023-08-17T13:57:45;8.20;;;5.45;;
6053;SDS011;3055;50.886;14.814;2023-08-17T14:00:13;6.05;;;5.45;;
6053;SDS011;3055;50.886;14.814;2023-08-17T14:02:40;7.00;;;5.55;;
6053;SDS011;3055;50.886;14.814;2023-08-17T14:05:07;6.28;;;5.15;;
6053;SDS011;3055;50.886;14.814;2023-08-17T14:07:34;5.78;;;5.20;;
6053;SDS011;3055;50.886;14.814;2023-08-17T14:10:03;6.43;;;5.82;;
6053;SDS011;3055;50.886;14.814;2023-08-17T14:12:30;7.00;;;5.68;;
6053;SDS011;3055;50.886;14.814;2023-08-17T14:14:59;6.20;;;5.55;;
6053;SDS011;3055;50.886;14.814;2023-08-17T14:17:26;7.80;;;6.00;;
6053;SDS011;3055;50.886;14.814;2023-08-17T14:19:53;6.45;;;5.43;;
6053;SDS011;3055;50.886;14.814;2023-08-17T14:22:20;8.20;;;5.50;;
6053;SDS011;3055;50.886;14.814;2023-08-17T14:24:48;5.55;;;5.05;;
6053;SDS011;3055;50.886;14.814;2023-08-17T14:27:16;6.90;;;5.70;;
6053;SDS011;3055;50.886;14.814;2023-08-17T14:29:43;5.32;;;4.82;;
6053;SDS011;3055;50.886;14.814;2023-08-17T14:32:10;8.07;;;5.40;;
6053;SDS011;3055;50.886;14.814;2023-08-17T14:34:37;5.40;;;4.90;;
6053;SDS011;3055;50.886;14.814;2023-08-17T14:37:04;6.47;;;4.78;;
6053;SDS011;3055;50.886;14.814;2023-08-17T14:39:31;5.18;;;4.78;;
6053;SDS011;3055;50.886;14.814;2023-08-17T14:41:58;5.35;;;4.85;;
6053;SDS011;3055;50.886;14.814;2023-08-17T14:44:27;5.53;;;5.00;;
6053;SDS011;3055;50.886;14.814;2023-08-17T14:46:54;4.88;;;4.38;;
6053;SDS011;3055;50.886;14.814;2023-08-17T14:49:21;5.80;;;5.15;;
6053;SDS011;3055;50.886;14.814;2023-08-17T14:51:48;5.03;;;4.63;;
6053;SDS011;3055;50.886;14.814;2023-08-17T14:54:15;6.47;;;5.20;;
6053;SDS011;3055;50.886;14.814;2023-08-17T14:56:42;7.28;;;5.22;;
6053;SDS011;3055;50.886;14.814;2023-08-17T14:59:09;6.50;;;5.40;;
6053;SDS011;3055;50.886;14.814;2023-08-17T15:01:38;5.72;;;5.15;;
6053;SDS011;3055;50.886;14.814;2023-08-17T15:04:05;6.60;;;4.85;;
6053;SDS011;3055;50.886;14.814;2023-08-17T15:06:32;4.50;;;4.07;;
6053;SDS011;3055;50.886;14.814;2023-08-17T15:08:59;5.80;;;4.82;;
6053;SDS011;3055;50.886;14.814;2023-08-17T15:11:28;5.53;;;4.53;;
6053;SDS011;3055;50.886;14.814;2023-08-17T15:13:55;5.00;;;4.45;;
6053;SDS011;3055;50.886;14.814;2023-08-17T15:16:22;5.28;;;4.70;;